createdAt,value
2022-10-02T00:00:36.347Z,99512.38
2022-10-02T00:03:26.084Z,99513.56
2022-10-02T00:06:03.933Z,99509.72
2022-10-02T00:08:34.704Z,99512.38
2022-10-02T00:11:17.514Z,99512.28
2022-10-02T00:14:00.376Z,99517.78
2022-10-02T00:16:48.682Z,99522.25
2022-10-02T00:19:19.775Z,99518.53
2022-10-02T00:22:14.380Z,99517.78
2022-10-02T00:24:55.088Z,99516.84
2022-10-02T00:27:46.341Z,99521.41
2022-10-02T00:30:16.652Z,99517.56
2022-10-02T00:33:07.058Z,99523.09
2022-10-02T00:35:52.884Z,99517.78
2022-10-02T00:38:29.915Z,99513.94
2022-10-02T00:41:27.688Z,99523.94
2022-10-02T00:44:34.251Z,99523.94
2022-10-02T00:47:12.665Z,99526.47
2022-10-02T00:49:58.954Z,99527.31
2022-10-02T00:52:34.664Z,99529.13
2022-10-02T00:55:28.954Z,99523.81
2022-10-02T00:57:58.455Z,99526.25
2022-10-02T01:00:25.163Z,99539.38
2022-10-02T01:03:06.666Z,99545.50
2022-10-02T01:05:34.140Z,99553.09
2022-10-02T01:08:01.345Z,99559.09
2022-10-02T01:10:28.947Z,99550.94
2022-10-02T01:12:57.144Z,99562.13
2022-10-02T01:15:33.434Z,99558.41
2022-10-02T01:18:02.258Z,99559.75
2022-10-02T01:20:41.906Z,99587.91
2022-10-02T01:23:15.538Z,99577.81
2022-10-02T01:25:42.240Z,99565.28
2022-10-02T01:28:09.127Z,99573.97
2022-10-02T01:30:39.149Z,99566.03
2022-10-02T01:33:06.031Z,99573.00
2022-10-02T01:35:35.628Z,99573.13
2022-10-02T01:38:09.010Z,99571.56
2022-10-02T01:40:38.088Z,99567.94
2022-10-02T01:43:09.012Z,99560.97
2022-10-02T01:45:41.229Z,99560.00
2022-10-02T01:48:16.566Z,99561.19
2022-10-02T01:50:51.903Z,99576.13
2022-10-02T01:53:36.799Z,99579.84
2022-10-02T01:56:21.708Z,99573.72
2022-10-02T01:59:19.017Z,99570.22
2022-10-02T02:02:03.014Z,99563.94
2022-10-02T02:04:42.063Z,99557.56
2022-10-02T02:07:16.436Z,99562.03
2022-10-02T02:10:24.094Z,99555.03
2022-10-02T02:13:02.295Z,99551.44
2022-10-02T02:15:37.953Z,99553.00
2022-10-02T02:18:11.826Z,99547.72
2022-10-02T02:20:53.281Z,99550.59
2022-10-02T02:23:28.737Z,99539.88
2022-10-02T02:26:02.884Z,99544.22
2022-10-02T02:28:32.592Z,99546.88
2022-10-02T02:31:07.099Z,99545.06
2022-10-02T02:33:49.311Z,99546.16
2022-10-02T02:36:19.777Z,99547.59
2022-10-02T02:38:51.322Z,99553.72
2022-10-02T02:41:24.788Z,99544.09
2022-10-02T02:43:59.674Z,99546.88
2022-10-02T02:46:56.467Z,99549.50
2022-10-02T02:49:27.358Z,99559.03
2022-10-02T02:51:57.386Z,99558.19
2022-10-02T02:54:35.121Z,99547.72
2022-10-02T02:57:05.112Z,99550.13
2022-10-02T02:59:33.969Z,99559.75
2022-10-02T03:02:00.704Z,99563.25
2022-10-02T03:04:27.355Z,99562.28
2022-10-02T03:07:01.111Z,99557.94
2022-10-02T03:09:32.349Z,99559.66
2022-10-02T03:12:04.996Z,99551.69
2022-10-02T03:14:49.551Z,99542.78
2022-10-02T03:17:53.645Z,99536.16
2022-10-02T03:20:40.135Z,99546.03
2022-10-02T03:23:28.071Z,99546.75
2022-10-02T03:26:03.196Z,99547.22
2022-10-02T03:28:55.698Z,99551.09
2022-10-02T03:31:25.022Z,99558.16
2022-10-02T03:33:53.878Z,99554.91
2022-10-02T03:36:22.438Z,99560.44
2022-10-02T03:39:12.622Z,99559.75
2022-10-02T03:41:37.716Z,99549.38
2022-10-02T03:44:04.244Z,99556.69
2022-10-02T03:46:30.886Z,99555.00
2022-10-02T03:48:57.657Z,99553.44
2022-10-02T03:51:24.525Z,99555.38
2022-10-02T03:53:52.168Z,99555.47
2022-10-02T03:56:38.969Z,99551.38
2022-10-02T03:59:14.946Z,99562.94
2022-10-02T04:01:49.079Z,99555.09
2022-10-02T04:04:23.294Z,99548.13
2022-10-02T04:07:04.868Z,99555.56
2022-10-02T04:09:44.676Z,99559.16
2022-10-02T04:12:16.859Z,99555.66
2022-10-02T04:15:02.134Z,99552.53
2022-10-02T04:17:54.690Z,99559.63
2022-10-02T04:20:44.974Z,99557.22
2022-10-02T04:23:20.826Z,99562.28
2022-10-02T04:25:52.571Z,99566.00
2022-10-02T04:28:26.407Z,99577.53
2022-10-02T04:30:54.074Z,99585.47
2022-10-02T04:33:23.151Z,99581.13
2022-10-02T04:35:52.446Z,99581.03
2022-10-02T04:38:43.555Z,99586.53
2022-10-02T04:41:18.712Z,99592.34
2022-10-02T04:43:57.111Z,99591.50
2022-10-02T04:46:49.666Z,99594.75
2022-10-02T04:49:38.039Z,99592.84
2022-10-02T04:52:41.618Z,99597.28
2022-10-02T04:55:26.744Z,99607.31
2022-10-02T04:58:25.056Z,99602.13
2022-10-02T05:01:03.612Z,99605.63
2022-10-02T05:03:42.089Z,99608.28
2022-10-02T05:06:30.477Z,99608.50
2022-10-02T05:09:00.029Z,99606.59
2022-10-02T05:11:54.833Z,99612.00
2022-10-02T05:14:36.264Z,99610.19
2022-10-02T05:17:30.367Z,99616.44
2022-10-02T05:20:18.750Z,99616.22
2022-10-02T05:23:04.332Z,99617.28
2022-10-02T05:25:40.012Z,99615.50
2022-10-02T05:28:31.509Z,99624.16
2022-10-02T05:31:09.412Z,99626.59
2022-10-02T05:33:52.530Z,99629.84
2022-10-02T05:36:44.820Z,99642.84
2022-10-02T05:39:22.790Z,99638.16
2022-10-02T05:42:00.576Z,99637.09
2022-10-02T05:44:42.911Z,99633.63
2022-10-02T05:47:23.497Z,99622.75
2022-10-02T05:49:59.771Z,99635.78
2022-10-02T05:52:40.611Z,99626.88
2022-10-02T05:55:21.430Z,99619.78
2022-10-02T05:57:55.058Z,99628.59
2022-10-02T06:00:36.029Z,99640.97
2022-10-02T06:03:17.971Z,99629.41
2022-10-02T06:05:50.500Z,99630.75
2022-10-02T06:08:22.261Z,99640.28
2022-10-02T06:10:54.179Z,99637.41
2022-10-02T06:13:30.038Z,99642.59
2022-10-02T06:16:12.252Z,99658.47
2022-10-02T06:18:44.087Z,99656.31
2022-10-02T06:21:28.283Z,99657.16
2022-10-02T06:24:00.417Z,99655.84
2022-10-02T06:26:40.187Z,99648.63
2022-10-02T06:29:18.747Z,99661.53
2022-10-02T06:32:05.185Z,99677.19
2022-10-02T06:34:31.757Z,99681.22
2022-10-02T06:37:13.456Z,99675.91
2022-10-02T06:40:04.458Z,99675.69
2022-10-02T06:42:43.744Z,99693.88
2022-10-02T06:45:35.779Z,99692.78
2022-10-02T06:48:08.185Z,99689.81
2022-10-02T06:50:56.357Z,99685.47
2022-10-02T06:53:50.950Z,99687.97
2022-10-02T06:56:23.433Z,99680.66
2022-10-02T06:59:08.175Z,99694.63
2022-10-02T07:01:57.542Z,99705.34
2022-10-02T07:04:45.657Z,99697.16
2022-10-02T07:07:26.594Z,99699.81
2022-10-02T07:10:10.768Z,99710.41
2022-10-02T07:12:49.485Z,99710.19
2022-10-02T07:15:26.127Z,99705.59
2022-10-02T07:17:52.618Z,99705.38
2022-10-02T07:20:21.941Z,99720.31
2022-10-02T07:22:51.479Z,99707.69
2022-10-02T07:25:46.059Z,99700.53
2022-10-02T07:28:27.830Z,99701.78
2022-10-02T07:31:04.299Z,99700.56
2022-10-02T07:34:07.301Z,99699.47
2022-10-02T07:36:52.542Z,99702.50
2022-10-02T07:39:42.908Z,99704.66
2022-10-02T07:42:38.802Z,99705.28
2022-10-02T07:45:27.572Z,99711.88
2022-10-02T07:48:31.558Z,99717.81
2022-10-02T07:51:35.062Z,99723.47
2022-10-02T07:54:12.148Z,99726.84
2022-10-02T07:56:40.024Z,99732.38
2022-10-02T07:59:12.366Z,99739.13
2022-10-02T08:01:41.623Z,99737.69
2022-10-02T08:04:18.838Z,99746.00
2022-10-02T08:06:50.075Z,99737.44
2022-10-02T08:09:27.791Z,99737.91
2022-10-02T08:12:00.209Z,99747.09
2022-10-02T08:14:42.629Z,99750.34
2022-10-02T08:17:34.951Z,99748.16
2022-10-02T08:20:47.722Z,99756.72
2022-10-02T08:23:34.120Z,99763.34
2022-10-02T08:26:08.798Z,99762.97
2022-10-02T08:28:44.490Z,99762.84
2022-10-02T08:31:13.437Z,99772.84
2022-10-02T08:33:40.579Z,99778.75
2022-10-02T08:36:25.659Z,99779.34
2022-10-02T08:39:18.860Z,99777.66
2022-10-02T08:42:05.602Z,99780.91
2022-10-02T08:44:57.514Z,99784.88
2022-10-02T08:47:48.861Z,99788.00
2022-10-02T08:50:53.178Z,99787.75
2022-10-02T08:53:45.023Z,99786.97
2022-10-02T08:56:20.188Z,99794.91
2022-10-02T08:59:08.698Z,99790.19
2022-10-02T09:01:50.874Z,99788.72
2022-10-02T09:04:29.403Z,99785.69
2022-10-02T09:07:04.927Z,99794.97
2022-10-02T09:09:58.923Z,99792.06
2022-10-02T09:12:44.161Z,99792.38
2022-10-02T09:15:52.721Z,99800.59
2022-10-02T09:18:49.055Z,99796.97
2022-10-02T09:21:18.922Z,99801.91
2022-10-02T09:24:03.802Z,99809.75
2022-10-02T09:26:45.770Z,99811.06
2022-10-02T09:29:30.952Z,99808.00
2022-10-02T09:32:12.722Z,99806.09
2022-10-02T09:35:16.953Z,99810.50
2022-10-02T09:37:53.419Z,99814.78
2022-10-02T09:40:58.530Z,99815.94
2022-10-02T09:44:03.577Z,99810.78
2022-10-02T09:47:00.196Z,99813.63
2022-10-02T09:49:57.562Z,99807.63
2022-10-02T09:52:24.035Z,99809.50
2022-10-02T09:55:15.277Z,99816.50
2022-10-02T09:57:54.570Z,99811.91
2022-10-02T10:01:11.923Z,99814.31
2022-10-02T10:03:57.200Z,99803.94
2022-10-02T10:07:03.615Z,99813.34
2022-10-02T10:09:57.668Z,99814.47
2022-10-02T10:13:03.801Z,99820.81
2022-10-02T10:16:22.327Z,99820.84
2022-10-02T10:19:02.961Z,99823.22
2022-10-02T10:21:44.735Z,99820.44
2022-10-02T10:24:39.804Z,99833.19
2022-10-02T10:27:16.224Z,99830.53
2022-10-02T10:30:15.384Z,99826.47
2022-10-02T10:33:00.360Z,99834.94
2022-10-02T10:36:04.604Z,99839.00
2022-10-02T10:38:37.193Z,99851.75
2022-10-02T10:41:55.959Z,99848.53
2022-10-02T10:44:40.945Z,99851.63
2022-10-02T10:47:33.709Z,99843.22
2022-10-02T10:50:24.522Z,99853.75
2022-10-02T10:53:17.172Z,99847.69
2022-10-02T10:56:06.466Z,99856.69
2022-10-02T10:58:57.461Z,99861.34
2022-10-02T11:01:45.265Z,99860.84
2022-10-02T11:05:07.205Z,99857.38
2022-10-02T11:07:40.723Z,99862.03
2022-10-02T11:10:31.939Z,99860.63
2022-10-02T11:13:11.049Z,99857.78
2022-10-02T11:16:06.550Z,99862.22
2022-10-02T11:18:52.344Z,99851.03
2022-10-02T11:21:43.428Z,99848.56
2022-10-02T11:24:51.160Z,99858.56
2022-10-02T11:27:23.391Z,99858.53
2022-10-02T11:29:55.060Z,99863.38
2022-10-02T11:32:51.248Z,99870.47
2022-10-02T11:35:30.386Z,99868.84
2022-10-02T11:38:22.981Z,99865.19
2022-10-02T11:40:58.343Z,99862.44
2022-10-02T11:43:59.753Z,99864.50
2022-10-02T11:46:53.853Z,99862.72
2022-10-02T11:50:01.131Z,99862.72
2022-10-02T11:52:48.659Z,99855.28
2022-10-02T11:55:24.172Z,99858.00
2022-10-02T11:57:53.703Z,99854.28
2022-10-02T12:01:05.728Z,99855.97
2022-10-02T12:03:50.942Z,99859.88
2022-10-02T12:06:53.016Z,99863.72
2022-10-02T12:09:35.486Z,99868.44
2022-10-02T12:12:17.111Z,99869.69
2022-10-02T12:14:56.696Z,99874.72
2022-10-02T12:17:38.039Z,99874.41
2022-10-02T12:20:50.691Z,99882.66
2022-10-02T12:23:54.584Z,99889.53
2022-10-02T12:27:14.949Z,99875.94
2022-10-02T12:30:00.886Z,99878.84
2022-10-02T12:32:49.995Z,99884.91
2022-10-02T12:35:26.243Z,99896.06
2022-10-02T12:38:19.726Z,99891.09
2022-10-02T12:41:17.555Z,99889.91
2022-10-02T12:44:05.716Z,99899.53
2022-10-02T12:46:32.247Z,99899.13
2022-10-02T12:49:20.002Z,99893.47
2022-10-02T12:52:27.722Z,99902.00
2022-10-02T12:55:09.519Z,99888.88
2022-10-02T12:57:58.800Z,99893.63
2022-10-02T13:01:22.543Z,99894.19
2022-10-02T13:04:07.415Z,99890.97
2022-10-02T13:06:37.300Z,99902.41
2022-10-02T13:09:29.197Z,99891.56
2022-10-02T13:12:09.754Z,99893.03
2022-10-02T13:15:09.784Z,99888.88
2022-10-02T13:17:47.349Z,99895.97
2022-10-02T13:20:32.701Z,99887.59
2022-10-02T13:23:21.449Z,99884.09
2022-10-02T13:25:58.743Z,99900.34
2022-10-02T13:28:25.270Z,99892.63
2022-10-02T13:31:04.561Z,99895.75
2022-10-02T13:34:01.938Z,99905.38
2022-10-02T13:36:36.174Z,99897.44
2022-10-02T13:39:30.652Z,99905.75
2022-10-02T13:42:25.593Z,99901.97
2022-10-02T13:45:15.388Z,99900.94
2022-10-02T13:48:05.781Z,99902.41
2022-10-02T13:50:41.388Z,99906.16
2022-10-02T13:53:34.766Z,99908.91
2022-10-02T13:56:20.852Z,99912.25
2022-10-02T13:59:05.788Z,99920.19
2022-10-02T14:01:59.118Z,99932.69
2022-10-02T14:04:47.600Z,99942.94
2022-10-02T14:07:25.983Z,99946.56
2022-10-02T14:09:58.603Z,99950.50
2022-10-02T14:12:50.633Z,99940.09
2022-10-02T14:15:33.578Z,99944.88
2022-10-02T14:18:52.493Z,99939.47
2022-10-02T14:21:34.657Z,99947.44
2022-10-02T14:27:36.337Z,99940.34
2022-10-02T14:30:15.824Z,99953.31
2022-10-02T14:32:54.167Z,99949.59
2022-10-02T14:35:35.599Z,99949.81
2022-10-02T14:38:20.816Z,99956.84
2022-10-02T14:40:56.085Z,99953.50
2022-10-02T14:43:34.402Z,99958.94
2022-10-02T14:46:07.908Z,99964.38
2022-10-02T14:49:01.818Z,99961.06
2022-10-02T14:52:03.578Z,99960.00
2022-10-02T14:54:35.826Z,99962.28
2022-10-02T14:57:34.993Z,99961.22
2022-10-02T15:00:01.489Z,99964.91
2022-10-02T15:02:42.803Z,99973.84
2022-10-02T15:05:41.302Z,99970.03
2022-10-02T15:08:15.643Z,99973.78
2022-10-02T15:10:46.078Z,99973.19
2022-10-02T15:13:28.513Z,99975.50
2022-10-02T15:16:59.873Z,99979.38
2022-10-02T15:19:50.135Z,99982.13
2022-10-02T15:22:26.091Z,99987.53
2022-10-02T15:25:06.828Z,99999.66
2022-10-02T15:28:31.252Z,100002.19
2022-10-02T15:30:59.873Z,100010.09
2022-10-02T15:33:46.289Z,100007.59
2022-10-02T15:36:21.480Z,100003.91
2022-10-02T15:39:26.518Z,100011.59
2022-10-02T15:42:12.770Z,100022.56
2022-10-02T15:45:08.614Z,100029.13
2022-10-02T15:48:14.696Z,100033.13
2022-10-02T15:50:53.662Z,100032.53
2022-10-02T15:53:36.865Z,100035.72
2022-10-02T15:56:27.533Z,100033.59
2022-10-02T15:59:29.749Z,100031.28
2022-10-02T16:02:24.184Z,100042.41
2022-10-02T16:05:29.456Z,100057.44
2022-10-02T16:08:04.704Z,100052.34
2022-10-02T16:10:45.406Z,100062.38
2022-10-02T16:13:38.040Z,100062.59
2022-10-02T16:16:28.442Z,100061.72
2022-10-02T16:19:26.148Z,100068.19
2022-10-02T16:22:21.136Z,100081.50
2022-10-02T16:25:15.194Z,100078.56
2022-10-02T16:27:57.007Z,100088.06
2022-10-02T16:30:26.505Z,100087.53
2022-10-02T16:33:17.682Z,100088.41
2022-10-02T16:35:56.292Z,100095.28
2022-10-02T16:38:41.459Z,100097.84
2022-10-02T16:41:24.526Z,100100.50
2022-10-02T16:44:23.300Z,100119.31
2022-10-02T16:46:59.021Z,100113.69
2022-10-02T16:49:43.549Z,100119.28
2022-10-02T16:52:22.246Z,100129.81
2022-10-02T16:54:48.987Z,100124.88
2022-10-02T16:57:29.598Z,100123.41
2022-10-02T17:00:06.756Z,100135.63
2022-10-02T17:02:43.514Z,100137.88
2022-10-02T17:05:23.553Z,100142.44
2022-10-02T17:08:16.768Z,100155.72
2022-10-02T17:11:05.729Z,100150.19
2022-10-02T17:13:37.431Z,100154.22
2022-10-02T17:16:21.100Z,100169.59
2022-10-02T17:18:57.313Z,100170.84
2022-10-02T17:21:44.624Z,100176.81
2022-10-02T17:24:14.198Z,100177.31
2022-10-02T17:26:52.045Z,100181.00
2022-10-02T17:29:26.615Z,100185.88
2022-10-02T17:31:54.983Z,100193.66
2022-10-02T17:34:21.539Z,100195.13
2022-10-02T17:37:05.588Z,100206.78
2022-10-02T17:39:44.410Z,100207.28
2022-10-02T17:42:32.776Z,100217.69
2022-10-02T17:45:15.388Z,100220.88
2022-10-02T17:47:50.956Z,100228.63
2022-10-02T17:50:33.643Z,100229.38
2022-10-02T17:53:43.106Z,100229.25
2022-10-02T17:56:30.751Z,100232.16
2022-10-02T17:59:05.350Z,100241.59
2022-10-02T18:01:50.454Z,100246.41
2022-10-02T18:04:45.923Z,100248.59
2022-10-02T18:07:35.670Z,100256.47
2022-10-02T18:10:28.741Z,100260.56
2022-10-02T18:13:14.476Z,100267.22
2022-10-02T18:15:59.953Z,100266.47
2022-10-02T18:18:40.453Z,100272.50
2022-10-02T18:21:41.455Z,100269.69
2022-10-02T18:24:40.448Z,100276.75
2022-10-02T18:27:26.625Z,100284.66
2022-10-02T18:30:30.142Z,100289.47
2022-10-02T18:33:28.530Z,100297.66
2022-10-02T18:36:00.098Z,100302.88
2022-10-02T18:38:42.761Z,100298.75
2022-10-02T18:41:19.246Z,100310.56
2022-10-02T18:44:07.232Z,100305.38
2022-10-02T18:46:55.006Z,100308.38
2022-10-02T18:49:41.742Z,100309.97
2022-10-02T18:52:24.397Z,100318.38
2022-10-02T18:55:18.631Z,100316.06
2022-10-02T18:58:04.499Z,100319.56
2022-10-02T19:00:52.535Z,100319.06
2022-10-02T19:03:19.044Z,100316.41
2022-10-02T19:06:15.218Z,100323.25
2022-10-02T19:09:04.046Z,100331.44
2022-10-02T19:11:33.312Z,100333.25
2022-10-02T19:14:27.653Z,100333.59
2022-10-02T19:17:24.519Z,100332.34
2022-10-02T19:19:51.043Z,100336.56
2022-10-02T19:22:22.345Z,100345.72
2022-10-02T19:25:03.604Z,100347.00
2022-10-02T19:27:34.913Z,100351.59
2022-10-02T19:30:06.351Z,100352.78
2022-10-02T19:32:41.305Z,100345.13
2022-10-02T19:35:29.420Z,100364.06
2022-10-02T19:38:09.178Z,100361.50
2022-10-02T19:40:37.022Z,100357.16
2022-10-02T19:43:25.518Z,100370.03
2022-10-02T19:45:56.969Z,100373.59
2022-10-02T19:48:27.074Z,100376.50
2022-10-02T19:50:59.077Z,100375.94
2022-10-02T19:53:37.970Z,100371.91
2022-10-02T19:56:43.832Z,100377.53
2022-10-02T19:59:25.490Z,100388.25
2022-10-02T20:01:54.008Z,100380.28
2022-10-02T20:04:26.554Z,100379.75
2022-10-02T20:06:56.545Z,100390.56
2022-10-02T20:09:25.278Z,100390.56
2022-10-02T20:12:06.311Z,100397.06
2022-10-02T20:14:42.609Z,100393.88
2022-10-02T20:17:12.837Z,100400.13
2022-10-02T20:19:51.823Z,100395.03
2022-10-02T20:22:30.532Z,100398.09
2022-10-02T20:25:11.992Z,100402.66
2022-10-02T20:27:46.285Z,100409.88
2022-10-02T20:30:17.995Z,100405.84
2022-10-02T20:32:59.791Z,100414.09
2022-10-02T20:35:36.257Z,100417.91
2022-10-02T20:38:22.210Z,100423.63
2022-10-02T20:40:53.276Z,100421.94
2022-10-02T20:43:45.013Z,100422.41
2022-10-02T20:46:29.826Z,100425.38
2022-10-02T20:49:09.469Z,100429.09
2022-10-02T20:52:07.869Z,100436.50
2022-10-02T20:55:12.419Z,100440.41
2022-10-02T20:58:14.028Z,100451.19
2022-10-02T21:00:51.963Z,100450.25
2022-10-02T21:03:42.973Z,100454.16
2022-10-02T21:06:30.753Z,100455.41
2022-10-02T21:09:16.077Z,100453.69
2022-10-02T21:11:56.079Z,100458.34
2022-10-02T21:15:00.912Z,100461.38
2022-10-02T21:17:45.447Z,100464.97
2022-10-02T21:20:33.408Z,100460.03
2022-10-02T21:23:34.571Z,100468.16
2022-10-02T21:26:27.098Z,100474.50
2022-10-02T21:29:15.521Z,100473.47
2022-10-02T21:31:56.392Z,100478.84
2022-10-02T21:34:41.676Z,100473.56
2022-10-02T21:37:34.737Z,100477.38
2022-10-02T21:40:10.390Z,100485.19
2022-10-02T21:43:13.977Z,100491.53
2022-10-02T21:46:11.428Z,100486.25
2022-10-02T21:49:13.730Z,100495.16
2022-10-02T21:51:46.270Z,100494.97
2022-10-02T21:55:04.112Z,100506.69
2022-10-02T21:57:58.342Z,100504.88
2022-10-02T22:00:27.266Z,100512.84
2022-10-02T22:03:06.009Z,100520.22
2022-10-02T22:06:05.550Z,100517.00
2022-10-02T22:08:43.767Z,100512.75
2022-10-02T22:11:42.524Z,100524.47
2022-10-02T22:14:40.676Z,100528.25
2022-10-02T22:17:23.516Z,100532.91
2022-10-02T22:20:05.573Z,100533.94
2022-10-02T22:23:14.680Z,100529.78
2022-10-02T22:26:10.003Z,100538.75
2022-10-02T22:28:51.448Z,100539.75
2022-10-02T22:31:51.260Z,100549.63
2022-10-02T22:34:41.608Z,100543.66
2022-10-02T22:37:15.437Z,100543.75
2022-10-02T22:40:16.712Z,100557.25
2022-10-02T22:43:00.864Z,100551.94
2022-10-02T22:46:16.846Z,100556.66
2022-10-02T22:48:53.565Z,100551.38
2022-10-02T22:51:20.032Z,100560.19
2022-10-02T22:54:11.038Z,100560.34
2022-10-02T22:56:44.776Z,100567.41
2022-10-02T22:59:31.705Z,100566.75
2022-10-02T23:02:47.155Z,100566.84
2022-10-02T23:05:29.484Z,100563.44
2022-10-02T23:08:07.150Z,100564.28
2022-10-02T23:10:59.573Z,100560.97
2022-10-02T23:13:41.994Z,100559.19
2022-10-02T23:16:16.279Z,100558.25
2022-10-02T23:18:49.500Z,100547.66
2022-10-02T23:21:30.048Z,100555.94
2022-10-02T23:24:20.337Z,100572.00
2022-10-02T23:27:06.347Z,100572.84
2022-10-02T23:30:08.077Z,100579.34
2022-10-02T23:32:46.694Z,100572.19
2022-10-02T23:35:21.367Z,100578.44
2022-10-02T23:37:57.782Z,100571.59
2022-10-02T23:41:12.374Z,100572.72
2022-10-02T23:43:48.740Z,100576.31
2022-10-02T23:46:26.032Z,100578.19
2022-10-02T23:48:53.998Z,100574.66
2022-10-02T23:51:23.583Z,100571.34
2022-10-02T23:54:16.148Z,100569.91
2022-10-02T23:57:02.885Z,100577.75
2022-10-02T23:59:51.861Z,100577.25
